sensor_id;sensor_type;location;lat;lon;timestamp;temperature;humidity
947;DHT22;460;48.734;9.152;2022-08-21T00:00:45;16.00;94.20
947;DHT22;460;48.734;9.152;2022-08-21T00:03:13;15.90;94.80
947;DHT22;460;48.734;9.152;2022-08-21T00:05:42;15.90;94.40
947;DHT22;460;48.734;9.152;2022-08-21T00:08:09;15.90;94.00
947;DHT22;460;48.734;9.152;2022-08-21T00:10:36;15.90;93.50
947;DHT22;460;48.734;9.152;2022-08-21T00:13:04;15.90;93.50
947;DHT22;460;48.734;9.152;2022-08-21T00:15:34;15.90;94.30
947;DHT22;460;48.734;9.152;2022-08-21T00:18:03;15.90;93.70
947;DHT22;460;48.734;9.152;2022-08-21T00:20:30;15.80;94.80
947;DHT22;460;48.734;9.152;2022-08-21T00:22:57;15.70;95.10
947;DHT22;460;48.734;9.152;2022-08-21T00:25:24;15.80;95.40
947;DHT22;460;48.734;9.152;2022-08-21T00:27:51;15.70;95.30
947;DHT22;460;48.734;9.152;2022-08-21T00:30:19;15.70;95.70
947;DHT22;460;48.734;9.152;2022-08-21T00:32:48;15.60;95.60
947;DHT22;460;48.734;9.152;2022-08-21T00:35:18;15.60;95.30
947;DHT22;460;48.734;9.152;2022-08-21T00:37:45;15.60;95.40
947;DHT22;460;48.734;9.152;2022-08-21T00:40:14;15.60;94.90
947;DHT22;460;48.734;9.152;2022-08-21T00:42:42;15.60;94.60
947;DHT22;460;48.734;9.152;2022-08-21T00:45:10;15.60;94.90
947;DHT22;460;48.734;9.152;2022-08-21T00:47:37;15.60;95.80
947;DHT22;460;48.734;9.152;2022-08-21T00:50:12;15.50;95.90
947;DHT22;460;48.734;9.152;2022-08-21T00:52:40;15.40;95.70
947;DHT22;460;48.734;9.152;2022-08-21T00:55:09;15.40;95.90
947;DHT22;460;48.734;9.152;2022-08-21T00:57:39;15.40;95.80
947;DHT22;460;48.734;9.152;2022-08-21T01:00:10;15.30;96.30
947;DHT22;460;48.734;9.152;2022-08-21T01:02:37;15.30;96.60
947;DHT22;460;48.734;9.152;2022-08-21T01:05:07;15.30;96.40
947;DHT22;460;48.734;9.152;2022-08-21T01:07:34;15.40;95.50
947;DHT22;460;48.734;9.152;2022-08-21T01:10:01;15.30;96.50
947;DHT22;460;48.734;9.152;2022-08-21T01:12:28;15.30;96.30
947;DHT22;460;48.734;9.152;2022-08-21T01:14:56;15.20;96.30
947;DHT22;460;48.734;9.152;2022-08-21T01:17:26;15.20;96.30
947;DHT22;460;48.734;9.152;2022-08-21T01:19:57;15.10;96.30
947;DHT22;460;48.734;9.152;2022-08-21T01:22:26;15.10;96.50
947;DHT22;460;48.734;9.152;2022-08-21T01:24:54;15.10;96.30
947;DHT22;460;48.734;9.152;2022-08-21T01:27:22;15.10;95.90
947;DHT22;460;48.734;9.152;2022-08-21T01:29:54;15.10;95.40
947;DHT22;460;48.734;9.152;2022-08-21T01:32:24;15.00;95.40
947;DHT22;460;48.734;9.152;2022-08-21T01:34:52;15.00;95.50
947;DHT22;460;48.734;9.152;2022-08-21T01:37:21;12.50;95.00
947;DHT22;460;48.734;9.152;2022-08-21T01:39:51;14.80;96.80
947;DHT22;460;48.734;9.152;2022-08-21T01:42:19;14.80;96.30
947;DHT22;460;48.734;9.152;2022-08-21T01:44:46;14.90;96.70
947;DHT22;460;48.734;9.152;2022-08-21T01:47:15;14.80;97.00
947;DHT22;460;48.734;9.152;2022-08-21T01:49:44;14.70;97.40
947;DHT22;460;48.734;9.152;2022-08-21T01:52:13;14.70;97.20
947;DHT22;460;48.734;9.152;2022-08-21T01:54:41;14.70;97.10
947;DHT22;460;48.734;9.152;2022-08-21T01:57:10;14.70;97.40
947;DHT22;460;48.734;9.152;2022-08-21T01:59:39;14.70;97.40
947;DHT22;460;48.734;9.152;2022-08-21T02:02:06;14.70;96.90
947;DHT22;460;48.734;9.152;2022-08-21T02:04:33;14.70;96.60
947;DHT22;460;48.734;9.152;2022-08-21T02:07:01;14.70;96.40
947;DHT22;460;48.734;9.152;2022-08-21T02:09:28;14.60;96.50
947;DHT22;460;48.734;9.152;2022-08-21T02:11:55;14.60;97.20
947;DHT22;460;48.734;9.152;2022-08-21T02:14:24;14.60;97.30
947;DHT22;460;48.734;9.152;2022-08-21T02:16:52;14.60;97.50
947;DHT22;460;48.734;9.152;2022-08-21T02:19:19;14.50;97.20
947;DHT22;460;48.734;9.152;2022-08-21T02:21:47;14.50;97.50
947;DHT22;460;48.734;9.152;2022-08-21T02:24:15;14.40;97.70
947;DHT22;460;48.734;9.152;2022-08-21T02:26:44;14.40;97.60
947;DHT22;460;48.734;9.152;2022-08-21T02:29:12;14.40;97.20
947;DHT22;460;48.734;9.152;2022-08-21T02:31:40;14.40;97.50
947;DHT22;460;48.734;9.152;2022-08-21T02:34:08;14.40;98.00
947;DHT22;460;48.734;9.152;2022-08-21T02:36:36;14.30;98.00
947;DHT22;460;48.734;9.152;2022-08-21T02:39:04;14.40;98.60
947;DHT22;460;48.734;9.152;2022-08-21T02:41:33;14.20;98.50
947;DHT22;460;48.734;9.152;2022-08-21T02:44:00;14.20;98.40
947;DHT22;460;48.734;9.152;2022-08-21T02:46:28;14.30;98.30
947;DHT22;460;48.734;9.152;2022-08-21T02:48:58;14.30;98.00
947;DHT22;460;48.734;9.152;2022-08-21T02:51:26;14.30;97.60
947;DHT22;460;48.734;9.152;2022-08-21T02:53:54;14.30;97.70
947;DHT22;460;48.734;9.152;2022-08-21T02:56:21;14.30;97.00
947;DHT22;460;48.734;9.152;2022-08-21T02:58:51;14.30;96.70
947;DHT22;460;48.734;9.152;2022-08-21T03:01:19;14.20;96.80
947;DHT22;460;48.734;9.152;2022-08-21T03:03:47;14.20;97.80
947;DHT22;460;48.734;9.152;2022-08-21T03:06:19;14.30;98.10
947;DHT22;460;48.734;9.152;2022-08-21T03:08:47;14.20;98.20
947;DHT22;460;48.734;9.152;2022-08-21T03:11:14;14.20;97.40
947;DHT22;460;48.734;9.152;2022-08-21T03:13:41;14.20;97.40
947;DHT22;460;48.734;9.152;2022-08-21T03:16:09;14.20;97.20
947;DHT22;460;48.734;9.152;2022-08-21T03:18:36;14.30;97.30
947;DHT22;460;48.734;9.152;2022-08-21T03:21:04;14.30;97.40
947;DHT22;460;48.734;9.152;2022-08-21T03:23:32;14.30;98.00
947;DHT22;460;48.734;9.152;2022-08-21T03:26:00;14.20;98.50
947;DHT22;460;48.734;9.152;2022-08-21T03:28:27;14.00;98.80
947;DHT22;460;48.734;9.152;2022-08-21T03:30:54;14.00;98.90
947;DHT22;460;48.734;9.152;2022-08-21T03:33:21;14.00;99.40
947;DHT22;460;48.734;9.152;2022-08-21T03:35:56;14.00;99.70
947;DHT22;460;48.734;9.152;2022-08-21T03:38:23;14.00;99.90
947;DHT22;460;48.734;9.152;2022-08-21T03:40:52;13.90;99.90
947;DHT22;460;48.734;9.152;2022-08-21T03:43:19;14.00;99.50
947;DHT22;460;48.734;9.152;2022-08-21T03:45:46;14.00;99.00
947;DHT22;460;48.734;9.152;2022-08-21T03:48:13;14.00;99.30
947;DHT22;460;48.734;9.152;2022-08-21T03:50:42;13.90;99.00
947;DHT22;460;48.734;9.152;2022-08-21T03:53:11;14.10;99.20
947;DHT22;460;48.734;9.152;2022-08-21T03:55:38;13.90;99.40
947;DHT22;460;48.734;9.152;2022-08-21T03:58:06;13.90;99.20
947;DHT22;460;48.734;9.152;2022-08-21T04:00:33;13.90;98.40
947;DHT22;460;48.734;9.152;2022-08-21T04:03:00;13.90;98.00
947;DHT22;460;48.734;9.152;2022-08-21T04:05:27;13.90;98.60
947;DHT22;460;48.734;9.152;2022-08-21T04:07:57;13.80;98.60
947;DHT22;460;48.734;9.152;2022-08-21T04:10:24;13.90;98.20
947;DHT22;460;48.734;9.152;2022-08-21T04:12:52;13.80;98.00
947;DHT22;460;48.734;9.152;2022-08-21T04:15:21;13.80;98.60
947;DHT22;460;48.734;9.152;2022-08-21T04:17:49;13.80;99.20
947;DHT22;460;48.734;9.152;2022-08-21T04:20:16;13.70;99.30
947;DHT22;460;48.734;9.152;2022-08-21T04:22:44;13.60;99.70
947;DHT22;460;48.734;9.152;2022-08-21T04:25:11;13.50;99.80
947;DHT22;460;48.734;9.152;2022-08-21T04:27:38;13.70;99.00
947;DHT22;460;48.734;9.152;2022-08-21T04:30:07;13.70;99.60
947;DHT22;460;48.734;9.152;2022-08-21T04:32:36;13.70;99.90
947;DHT22;460;48.734;9.152;2022-08-21T04:35:06;13.70;99.90
947;DHT22;460;48.734;9.152;2022-08-21T04:37:34;13.50;99.90
947;DHT22;460;48.734;9.152;2022-08-21T04:40:01;13.50;99.90
947;DHT22;460;48.734;9.152;2022-08-21T04:42:29;13.60;99.40
947;DHT22;460;48.734;9.152;2022-08-21T04:44:56;13.70;99.10
947;DHT22;460;48.734;9.152;2022-08-21T04:47:23;13.60;98.80
947;DHT22;460;48.734;9.152;2022-08-21T04:49:52;13.70;98.60
947;DHT22;460;48.734;9.152;2022-08-21T04:52:21;13.60;99.70
947;DHT22;460;48.734;9.152;2022-08-21T04:54:50;13.70;99.90
947;DHT22;460;48.734;9.152;2022-08-21T04:57:18;13.60;99.90
947;DHT22;460;48.734;9.152;2022-08-21T04:59:48;13.60;99.90
947;DHT22;460;48.734;9.152;2022-08-21T05:02:15;13.60;99.90
947;DHT22;460;48.734;9.152;2022-08-21T05:04:45;13.80;99.90
947;DHT22;460;48.734;9.152;2022-08-21T05:07:18;13.80;99.40
947;DHT22;460;48.734;9.152;2022-08-21T05:09:46;13.90;98.90
947;DHT22;460;48.734;9.152;2022-08-21T05:12:13;13.90;99.20
947;DHT22;460;48.734;9.152;2022-08-21T05:14:40;13.90;98.80
947;DHT22;460;48.734;9.152;2022-08-21T05:17:08;13.90;99.60
947;DHT22;460;48.734;9.152;2022-08-21T05:19:34;13.90;99.90
947;DHT22;460;48.734;9.152;2022-08-21T05:22:01;13.90;99.90
947;DHT22;460;48.734;9.152;2022-08-21T05:24:30;13.90;99.90
947;DHT22;460;48.734;9.152;2022-08-21T05:26:57;13.90;99.90
947;DHT22;460;48.734;9.152;2022-08-21T05:29:24;13.90;99.90
947;DHT22;460;48.734;9.152;2022-08-21T05:31:51;14.00;99.90
947;DHT22;460;48.734;9.152;2022-08-21T05:34:20;14.20;99.90
947;DHT22;460;48.734;9.152;2022-08-21T05:36:47;14.20;99.90
947;DHT22;460;48.734;9.152;2022-08-21T05:39:14;14.40;99.90
947;DHT22;460;48.734;9.152;2022-08-21T05:41:43;14.40;99.90
947;DHT22;460;48.734;9.152;2022-08-21T05:44:09;14.50;99.90
947;DHT22;460;48.734;9.152;2022-08-21T05:46:36;14.50;99.90
947;DHT22;460;48.734;9.152;2022-08-21T05:49:03;14.60;99.90
947;DHT22;460;48.734;9.152;2022-08-21T05:51:30;14.60;99.90
947;DHT22;460;48.734;9.152;2022-08-21T05:53:57;14.70;99.90
947;DHT22;460;48.734;9.152;2022-08-21T05:56:24;14.70;99.90
947;DHT22;460;48.734;9.152;2022-08-21T05:58:52;14.80;99.90
947;DHT22;460;48.734;9.152;2022-08-21T06:01:19;14.90;99.90
947;DHT22;460;48.734;9.152;2022-08-21T06:03:46;15.10;99.90
947;DHT22;460;48.734;9.152;2022-08-21T06:06:12;15.20;99.90
947;DHT22;460;48.734;9.152;2022-08-21T06:08:39;15.30;99.90
947;DHT22;460;48.734;9.152;2022-08-21T06:11:08;15.30;99.90
947;DHT22;460;48.734;9.152;2022-08-21T06:13:36;15.50;99.90
947;DHT22;460;48.734;9.152;2022-08-21T06:16:08;15.60;99.90
947;DHT22;460;48.734;9.152;2022-08-21T06:18:36;15.80;99.40
947;DHT22;460;48.734;9.152;2022-08-21T06:21:04;16.10;97.60
947;DHT22;460;48.734;9.152;2022-08-21T06:23:31;16.30;97.00
947;DHT22;460;48.734;9.152;2022-08-21T06:25:58;16.40;96.20
947;DHT22;460;48.734;9.152;2022-08-21T06:28:25;16.50;95.80
947;DHT22;460;48.734;9.152;2022-08-21T06:30:52;16.50;96.00
947;DHT22;460;48.734;9.152;2022-08-21T06:33:21;16.70;95.20
947;DHT22;460;48.734;9.152;2022-08-21T06:35:49;16.80;96.10
947;DHT22;460;48.734;9.152;2022-08-21T06:38:15;16.70;96.30
947;DHT22;460;48.734;9.152;2022-08-21T06:40:42;16.70;96.90
947;DHT22;460;48.734;9.152;2022-08-21T06:43:11;16.70;96.50
947;DHT22;460;48.734;9.152;2022-08-21T06:45:39;16.70;95.80
947;DHT22;460;48.734;9.152;2022-08-21T06:48:06;16.90;95.80
947;DHT22;460;48.734;9.152;2022-08-21T06:50:34;17.00;95.70
947;DHT22;460;48.734;9.152;2022-08-21T06:53:04;17.10;95.90
947;DHT22;460;48.734;9.152;2022-08-21T06:55:31;17.10;94.80
947;DHT22;460;48.734;9.152;2022-08-21T06:57:58;17.30;94.00
947;DHT22;460;48.734;9.152;2022-08-21T07:00:25;17.30;94.40
947;DHT22;460;48.734;9.152;2022-08-21T07:02:53;17.30;94.40
947;DHT22;460;48.734;9.152;2022-08-21T07:05:20;17.50;92.90
947;DHT22;460;48.734;9.152;2022-08-21T07:07:48;17.70;92.90
947;DHT22;460;48.734;9.152;2022-08-21T07:10:15;17.80;93.60
947;DHT22;460;48.734;9.152;2022-08-21T07:12:42;17.80;93.10
947;DHT22;460;48.734;9.152;2022-08-21T07:15:10;17.90;93.00
947;DHT22;460;48.734;9.152;2022-08-21T07:17:37;18.00;92.70
947;DHT22;460;48.734;9.152;2022-08-21T07:20:05;18.10;92.10
947;DHT22;460;48.734;9.152;2022-08-21T07:22:33;18.20;91.80
947;DHT22;460;48.734;9.152;2022-08-21T07:25:01;18.40;91.80
947;DHT22;460;48.734;9.152;2022-08-21T07:27:28;18.60;91.70
947;DHT22;460;48.734;9.152;2022-08-21T07:29:55;18.60;91.70
947;DHT22;460;48.734;9.152;2022-08-21T07:32:22;18.60;91.30
947;DHT22;460;48.734;9.152;2022-08-21T07:34:49;18.70;90.40
947;DHT22;460;48.734;9.152;2022-08-21T07:37:16;18.80;91.10
947;DHT22;460;48.734;9.152;2022-08-21T07:39:43;18.80;91.00
947;DHT22;460;48.734;9.152;2022-08-21T07:42:11;19.00;90.40
947;DHT22;460;48.734;9.152;2022-08-21T07:44:38;19.00;90.40
947;DHT22;460;48.734;9.152;2022-08-21T07:47:05;19.10;90.60
947;DHT22;460;48.734;9.152;2022-08-21T07:49:32;19.20;90.10
947;DHT22;460;48.734;9.152;2022-08-21T07:51:59;19.30;89.10
947;DHT22;460;48.734;9.152;2022-08-21T07:54:26;19.40;88.50
947;DHT22;460;48.734;9.152;2022-08-21T07:56:53;19.40;87.60
947;DHT22;460;48.734;9.152;2022-08-21T07:59:21;19.50;88.70
947;DHT22;460;48.734;9.152;2022-08-21T08:01:48;19.50;87.90
947;DHT22;460;48.734;9.152;2022-08-21T08:04:15;19.70;85.70
947;DHT22;460;48.734;9.152;2022-08-21T08:06:43;19.70;86.00
947;DHT22;460;48.734;9.152;2022-08-21T08:09:10;19.90;86.20
947;DHT22;460;48.734;9.152;2022-08-21T08:11:39;19.90;85.00
947;DHT22;460;48.734;9.152;2022-08-21T08:14:08;20.00;81.80
947;DHT22;460;48.734;9.152;2022-08-21T08:16:37;20.20;79.70
947;DHT22;460;48.734;9.152;2022-08-21T08:19:03;20.40;79.00
947;DHT22;460;48.734;9.152;2022-08-21T08:21:30;20.70;79.90
947;DHT22;460;48.734;9.152;2022-08-21T08:23:59;21.00;78.20
947;DHT22;460;48.734;9.152;2022-08-21T08:26:26;21.00;79.80
947;DHT22;460;48.734;9.152;2022-08-21T08:28:53;21.00;78.80
947;DHT22;460;48.734;9.152;2022-08-21T08:31:20;21.20;78.60
947;DHT22;460;48.734;9.152;2022-08-21T08:33:48;21.20;78.80
947;DHT22;460;48.734;9.152;2022-08-21T08:36:16;21.20;78.50
947;DHT22;460;48.734;9.152;2022-08-21T08:38:45;21.10;77.60
947;DHT22;460;48.734;9.152;2022-08-21T08:41:14;21.10;75.00
947;DHT22;460;48.734;9.152;2022-08-21T08:43:44;21.10;76.40
947;DHT22;460;48.734;9.152;2022-08-21T08:46:18;21.20;74.50
947;DHT22;460;48.734;9.152;2022-08-21T08:48:54;21.40;76.20
947;DHT22;460;48.734;9.152;2022-08-21T08:51:27;21.30;74.40
947;DHT22;460;48.734;9.152;2022-08-21T08:53:59;21.30;73.30
947;DHT22;460;48.734;9.152;2022-08-21T08:56:29;21.40;76.00
947;DHT22;460;48.734;9.152;2022-08-21T08:59:02;21.60;75.30
947;DHT22;460;48.734;9.152;2022-08-21T09:01:32;21.70;74.70
947;DHT22;460;48.734;9.152;2022-08-21T09:04:01;21.90;75.20
947;DHT22;460;48.734;9.152;2022-08-21T09:09:38;21.90;71.40
947;DHT22;460;48.734;9.152;2022-08-21T09:15:09;22.00;71.10
947;DHT22;460;48.734;9.152;2022-08-21T09:17:57;22.30;72.50
947;DHT22;460;48.734;9.152;2022-08-21T09:20:35;22.30;72.70
947;DHT22;460;48.734;9.152;2022-08-21T09:23:13;22.40;72.00
947;DHT22;460;48.734;9.152;2022-08-21T09:25:56;22.50;72.10
947;DHT22;460;48.734;9.152;2022-08-21T09:28:26;22.70;71.20
947;DHT22;460;48.734;9.152;2022-08-21T09:30:55;23.00;66.80
947;DHT22;460;48.734;9.152;2022-08-21T09:33:28;23.20;70.70
947;DHT22;460;48.734;9.152;2022-08-21T09:35:57;23.40;66.10
947;DHT22;460;48.734;9.152;2022-08-21T09:38:26;23.50;69.10
947;DHT22;460;48.734;9.152;2022-08-21T09:40:59;23.50;67.50
947;DHT22;460;48.734;9.152;2022-08-21T09:43:26;23.70;66.80
947;DHT22;460;48.734;9.152;2022-08-21T09:46:04;23.90;64.40
947;DHT22;460;48.734;9.152;2022-08-21T09:48:39;23.90;69.50
947;DHT22;460;48.734;9.152;2022-08-21T09:51:10;24.20;67.00
947;DHT22;460;48.734;9.152;2022-08-21T09:53:43;24.50;64.30
947;DHT22;460;48.734;9.152;2022-08-21T09:56:20;24.60;63.10
947;DHT22;460;48.734;9.152;2022-08-21T09:59:19;24.70;64.30
947;DHT22;460;48.734;9.152;2022-08-21T10:01:47;24.60;64.90
947;DHT22;460;48.734;9.152;2022-08-21T10:04:18;24.80;63.20
947;DHT22;460;48.734;9.152;2022-08-21T10:06:47;24.90;62.60
947;DHT22;460;48.734;9.152;2022-08-21T10:09:16;24.70;62.40
947;DHT22;460;48.734;9.152;2022-08-21T10:11:48;24.50;63.10
947;DHT22;460;48.734;9.152;2022-08-21T10:14:21;24.30;65.10
947;DHT22;460;48.734;9.152;2022-08-21T10:16:57;24.10;68.90
947;DHT22;460;48.734;9.152;2022-08-21T10:19:30;24.20;68.50
947;DHT22;460;48.734;9.152;2022-08-21T10:22:16;24.00;66.60
947;DHT22;460;48.734;9.152;2022-08-21T10:24:53;23.90;68.40
947;DHT22;460;48.734;9.152;2022-08-21T10:27:31;24.20;67.40
947;DHT22;460;48.734;9.152;2022-08-21T10:30:03;24.50;66.10
947;DHT22;460;48.734;9.152;2022-08-21T10:32:52;24.60;65.40
947;DHT22;460;48.734;9.152;2022-08-21T10:35:26;24.70;64.60
947;DHT22;460;48.734;9.152;2022-08-21T10:40:50;25.00;63.70
947;DHT22;460;48.734;9.152;2022-08-21T10:43:34;25.20;65.90
947;DHT22;460;48.734;9.152;2022-08-21T10:46:11;25.50;60.70
947;DHT22;460;48.734;9.152;2022-08-21T10:48:47;25.70;59.90
947;DHT22;460;48.734;9.152;2022-08-21T10:51:19;25.70;60.30
947;DHT22;460;48.734;9.152;2022-08-21T10:53:55;25.70;59.70
947;DHT22;460;48.734;9.152;2022-08-21T10:56:29;25.80;61.00
947;DHT22;460;48.734;9.152;2022-08-21T10:59:04;25.60;59.00
947;DHT22;460;48.734;9.152;2022-08-21T11:01:39;25.50;60.10
947;DHT22;460;48.734;9.152;2022-08-21T11:04:12;25.70;59.70
947;DHT22;460;48.734;9.152;2022-08-21T11:06:46;25.80;59.20
947;DHT22;460;48.734;9.152;2022-08-21T11:09:18;26.00;60.40
947;DHT22;460;48.734;9.152;2022-08-21T11:11:49;26.20;61.40
947;DHT22;460;48.734;9.152;2022-08-21T11:14:22;26.30;59.00
947;DHT22;460;48.734;9.152;2022-08-21T11:16:56;26.40;59.40
947;DHT22;460;48.734;9.152;2022-08-21T11:19:28;26.20;58.60
947;DHT22;460;48.734;9.152;2022-08-21T11:22:02;26.40;57.80
947;DHT22;460;48.734;9.152;2022-08-21T11:24:40;26.60;57.90
947;DHT22;460;48.734;9.152;2022-08-21T11:27:14;27.00;57.70
947;DHT22;460;48.734;9.152;2022-08-21T11:29:46;27.10;57.40
947;DHT22;460;48.734;9.152;2022-08-21T11:32:55;27.10;57.80
947;DHT22;460;48.734;9.152;2022-08-21T11:35:32;27.30;56.30
947;DHT22;460;48.734;9.152;2022-08-21T11:38:10;27.50;55.20
947;DHT22;460;48.734;9.152;2022-08-21T11:41:00;27.60;55.30
947;DHT22;460;48.734;9.152;2022-08-21T11:43:36;27.80;55.30
947;DHT22;460;48.734;9.152;2022-08-21T11:46:17;28.00;54.40
947;DHT22;460;48.734;9.152;2022-08-21T11:51:39;28.30;55.90
947;DHT22;460;48.734;9.152;2022-08-21T11:54:16;28.10;53.40
947;DHT22;460;48.734;9.152;2022-08-21T11:56:51;28.20;54.10
947;DHT22;460;48.734;9.152;2022-08-21T11:59:31;28.20;54.40
947;DHT22;460;48.734;9.152;2022-08-21T12:01:59;27.70;53.30
947;DHT22;460;48.734;9.152;2022-08-21T12:04:28;27.20;54.30
947;DHT22;460;48.734;9.152;2022-08-21T12:06:56;27.10;55.70
947;DHT22;460;48.734;9.152;2022-08-21T12:09:32;26.90;54.90
947;DHT22;460;48.734;9.152;2022-08-21T12:12:09;26.70;55.90
947;DHT22;460;48.734;9.152;2022-08-21T12:14:39;26.30;55.60
947;DHT22;460;48.734;9.152;2022-08-21T12:17:09;26.10;57.40
947;DHT22;460;48.734;9.152;2022-08-21T12:19:43;25.80;58.30
947;DHT22;460;48.734;9.152;2022-08-21T12:22:12;25.60;58.60
947;DHT22;460;48.734;9.152;2022-08-21T12:24:41;25.50;61.80
947;DHT22;460;48.734;9.152;2022-08-21T12:27:28;25.20;59.30
947;DHT22;460;48.734;9.152;2022-08-21T12:29:58;25.00;59.90
947;DHT22;460;48.734;9.152;2022-08-21T12:32:28;25.00;58.60
947;DHT22;460;48.734;9.152;2022-08-21T12:35:02;25.10;59.70
947;DHT22;460;48.734;9.152;2022-08-21T12:37:39;25.70;58.20
947;DHT22;460;48.734;9.152;2022-08-21T12:40:12;25.80;59.50
947;DHT22;460;48.734;9.152;2022-08-21T12:42:45;25.60;57.80
947;DHT22;460;48.734;9.152;2022-08-21T12:45:19;26.50;59.40
947;DHT22;460;48.734;9.152;2022-08-21T12:47:50;28.10;56.50
947;DHT22;460;48.734;9.152;2022-08-21T12:50:21;28.50;52.50
947;DHT22;460;48.734;9.152;2022-08-21T12:52:55;28.20;51.80
947;DHT22;460;48.734;9.152;2022-08-21T12:55:30;27.90;57.50
947;DHT22;460;48.734;9.152;2022-08-21T12:57:59;27.60;53.90
947;DHT22;460;48.734;9.152;2022-08-21T13:00:28;27.00;53.10
947;DHT22;460;48.734;9.152;2022-08-21T13:02:56;27.10;56.40
947;DHT22;460;48.734;9.152;2022-08-21T13:05:29;28.50;56.50
947;DHT22;460;48.734;9.152;2022-08-21T13:07:58;29.40;53.40
947;DHT22;460;48.734;9.152;2022-08-21T13:10:28;29.20;52.60
947;DHT22;460;48.734;9.152;2022-08-21T13:12:57;29.20;50.60
947;DHT22;460;48.734;9.152;2022-08-21T13:15:30;30.00;50.90
947;DHT22;460;48.734;9.152;2022-08-21T13:17:57;31.20;49.70
947;DHT22;460;48.734;9.152;2022-08-21T13:20:29;32.10;48.40
947;DHT22;460;48.734;9.152;2022-08-21T13:22:59;32.80;46.80
947;DHT22;460;48.734;9.152;2022-08-21T13:25:28;33.40;45.10
947;DHT22;460;48.734;9.152;2022-08-21T13:28:00;33.80;44.30
947;DHT22;460;48.734;9.152;2022-08-21T13:30:28;34.00;43.70
947;DHT22;460;48.734;9.152;2022-08-21T13:32:59;34.20;42.60
947;DHT22;460;48.734;9.152;2022-08-21T13:35:29;34.60;42.40
947;DHT22;460;48.734;9.152;2022-08-21T13:37:57;34.30;41.70
947;DHT22;460;48.734;9.152;2022-08-21T13:40:29;34.00;41.30
947;DHT22;460;48.734;9.152;2022-08-21T13:42:56;33.70;41.10
947;DHT22;460;48.734;9.152;2022-08-21T13:45:26;33.80;41.70
947;DHT22;460;48.734;9.152;2022-08-21T13:47:55;34.10;42.40
947;DHT22;460;48.734;9.152;2022-08-21T13:50:23;34.30;41.50
947;DHT22;460;48.734;9.152;2022-08-21T13:53:01;34.60;40.40
947;DHT22;460;48.734;9.152;2022-08-21T13:55:38;34.30;38.40
947;DHT22;460;48.734;9.152;2022-08-21T13:58:05;34.80;39.30
947;DHT22;460;48.734;9.152;2022-08-21T14:00:34;34.40;40.00
947;DHT22;460;48.734;9.152;2022-08-21T14:03:07;34.00;40.80
947;DHT22;460;48.734;9.152;2022-08-21T14:05:37;34.00;42.00
947;DHT22;460;48.734;9.152;2022-08-21T14:08:07;34.00;41.10
947;DHT22;460;48.734;9.152;2022-08-21T14:10:37;33.50;41.30
947;DHT22;460;48.734;9.152;2022-08-21T14:13:07;33.00;41.50
947;DHT22;460;48.734;9.152;2022-08-21T14:15:42;32.90;42.60
947;DHT22;460;48.734;9.152;2022-08-21T14:18:14;33.10;43.40
947;DHT22;460;48.734;9.152;2022-08-21T14:20:42;32.30;42.80
947;DHT22;460;48.734;9.152;2022-08-21T14:23:09;31.80;42.70
947;DHT22;460;48.734;9.152;2022-08-21T14:25:39;31.40;41.20
947;DHT22;460;48.734;9.152;2022-08-21T14:28:14;32.20;42.90
947;DHT22;460;48.734;9.152;2022-08-21T14:30:43;32.60;41.30
947;DHT22;460;48.734;9.152;2022-08-21T14:33:13;32.20;42.10
947;DHT22;460;48.734;9.152;2022-08-21T14:35:44;31.60;42.50
947;DHT22;460;48.734;9.152;2022-08-21T14:38:13;30.30;41.60
947;DHT22;460;48.734;9.152;2022-08-21T14:40:41;29.80;42.30
947;DHT22;460;48.734;9.152;2022-08-21T14:43:08;29.60;44.00
947;DHT22;460;48.734;9.152;2022-08-21T14:45:35;28.70;43.70
947;DHT22;460;48.734;9.152;2022-08-21T14:48:07;28.60;42.80
947;DHT22;460;48.734;9.152;2022-08-21T14:50:35;28.60;46.90
947;DHT22;460;48.734;9.152;2022-08-21T14:53:02;28.50;46.10
947;DHT22;460;48.734;9.152;2022-08-21T14:55:30;28.20;46.10
947;DHT22;460;48.734;9.152;2022-08-21T14:58:19;27.90;44.60
947;DHT22;460;48.734;9.152;2022-08-21T15:00:48;28.10;46.90
947;DHT22;460;48.734;9.152;2022-08-21T15:03:16;28.20;44.80
947;DHT22;460;48.734;9.152;2022-08-21T15:05:44;28.10;46.90
947;DHT22;460;48.734;9.152;2022-08-21T15:08:11;27.90;46.70
947;DHT22;460;48.734;9.152;2022-08-21T15:10:38;27.90;45.10
947;DHT22;460;48.734;9.152;2022-08-21T15:13:06;27.70;47.20
947;DHT22;460;48.734;9.152;2022-08-21T15:15:38;27.50;46.50
947;DHT22;460;48.734;9.152;2022-08-21T15:18:09;26.90;47.40
947;DHT22;460;48.734;9.152;2022-08-21T15:20:37;26.90;49.30
947;DHT22;460;48.734;9.152;2022-08-21T15:23:06;26.70;47.70
947;DHT22;460;48.734;9.152;2022-08-21T15:25:34;26.80;49.50
947;DHT22;460;48.734;9.152;2022-08-21T15:28:02;26.90;47.80
947;DHT22;460;48.734;9.152;2022-08-21T15:30:30;27.00;47.00
947;DHT22;460;48.734;9.152;2022-08-21T15:32:57;27.00;47.90
947;DHT22;460;48.734;9.152;2022-08-21T15:35:24;26.90;46.60
947;DHT22;460;48.734;9.152;2022-08-21T15:37:51;26.90;46.00
947;DHT22;460;48.734;9.152;2022-08-21T15:40:19;26.70;46.20
947;DHT22;460;48.734;9.152;2022-08-21T15:42:46;26.70;46.10
947;DHT22;460;48.734;9.152;2022-08-21T15:45:14;26.50;47.40
947;DHT22;460;48.734;9.152;2022-08-21T15:47:43;26.50;45.80
947;DHT22;460;48.734;9.152;2022-08-21T15:50:12;26.50;45.10
947;DHT22;460;48.734;9.152;2022-08-21T15:52:39;26.40;45.50
947;DHT22;460;48.734;9.152;2022-08-21T15:55:07;26.40;45.90
947;DHT22;460;48.734;9.152;2022-08-21T15:57:37;26.20;47.40
947;DHT22;460;48.734;9.152;2022-08-21T16:00:11;26.10;49.00
947;DHT22;460;48.734;9.152;2022-08-21T16:02:41;26.00;48.50
947;DHT22;460;48.734;9.152;2022-08-21T16:05:09;25.90;49.30
947;DHT22;460;48.734;9.152;2022-08-21T16:07:37;25.90;48.70
947;DHT22;460;48.734;9.152;2022-08-21T16:10:05;25.90;48.00
947;DHT22;460;48.734;9.152;2022-08-21T16:12:36;25.90;49.10
947;DHT22;460;48.734;9.152;2022-08-21T16:15:07;25.90;50.20
947;DHT22;460;48.734;9.152;2022-08-21T16:17:36;26.00;47.70
947;DHT22;460;48.734;9.152;2022-08-21T16:20:06;25.90;49.20
947;DHT22;460;48.734;9.152;2022-08-21T16:22:33;25.80;48.30
947;DHT22;460;48.734;9.152;2022-08-21T16:25:00;25.80;48.20
947;DHT22;460;48.734;9.152;2022-08-21T16:27:27;25.70;47.20
947;DHT22;460;48.734;9.152;2022-08-21T16:29:56;25.80;49.50
947;DHT22;460;48.734;9.152;2022-08-21T16:32:23;25.70;51.10
947;DHT22;460;48.734;9.152;2022-08-21T16:34:50;25.80;49.60
947;DHT22;460;48.734;9.152;2022-08-21T16:37:17;25.80;48.70
947;DHT22;460;48.734;9.152;2022-08-21T16:39:44;25.90;49.20
947;DHT22;460;48.734;9.152;2022-08-21T16:42:13;25.80;49.00
947;DHT22;460;48.734;9.152;2022-08-21T16:44:42;25.80;51.10
947;DHT22;460;48.734;9.152;2022-08-21T16:47:11;25.90;49.60
947;DHT22;460;48.734;9.152;2022-08-21T16:49:38;25.90;47.30
947;DHT22;460;48.734;9.152;2022-08-21T16:52:05;25.80;48.70
947;DHT22;460;48.734;9.152;2022-08-21T16:54:32;25.80;46.90
947;DHT22;460;48.734;9.152;2022-08-21T16:56:59;25.70;46.70
947;DHT22;460;48.734;9.152;2022-08-21T16:59:26;25.60;46.80
947;DHT22;460;48.734;9.152;2022-08-21T17:01:54;25.50;47.40